LiveATC.Net - Listen to live air traffic control over the Internet!

Airport/ARTCC Code
Frequency Search
(e.g., 124.400, 128.75)
Site-wide search
 


Browse Feeds
Top 50 Feeds
Coverage Map
Bad Weather Areas

LiveATC FAQ
Offer LiveATC feed
Contact LiveATC.net
Press Inquiries

LiveATC on iPhone
LiveATC on Android

Windows Phone
Windows 8/10

LiveATC Mobile
(Mobile browser)

ATC Audio Archives
Interesting Recordings

LiveATC Forums

Home Page
About LiveATC.net
Make a Donation
Terms of Use
Privacy Policy

Canadian Air Freqs

AIRMETs/SIGMETs

FAA Airport Status
Nat'l Airspace Status
Arrival Demand Charts


Server Software By:
Icecast.org
Liquidsoap


Current Potentially Bad Weather Airports
(updated every 30 minutes - sorted alphabetically by ICAO code)



This page lists LiveATC.net airport areas that may be interesting to listen to because of challenging flying (weather) conditions. Challenging weather conditions include low ceilings, limited visibility, high or gusty winds, or thunderstorms.

Updated: Tue Feb 25 12:40:01 UTC 2020
Click on airport name to go to that airport area's feeds.

51FL/KCDK/KCTY/X60 CTAF Chiefland Sky Ranch Airport (Chiefland, US-FL)
kctyNearest METAR:
KCTY 251215Z AUTO 19008KT 10SM 19/17 A2990 RMK AO2 LTG DSNT SW T01880173
KLGC CTAF (Air Race Classic) LaGrange-Callaway Airport (LaGrange, US-GA)
klgcNearest METAR:
KLGC 251215Z AUTO 00000KT 1/2SM FG BKN002 BKN040 BKN048 14/14 A2981 RMK AO2 T01440139
CYHZ Del/Gnd/Twr/App #1 Halifax International Airport (Halifax, CA-NS)
WX MAP UNAVAILABLENearest METAR:
CYHZ 251200Z 15003KT 090V170 1/2SM R23/4000FT/N R14/3000V4500FT/U FZFG SCT005 OVC200 M01/M01 A2998 RMK FG4SF2CI2 SLP160
CYOO Ground Oshawa Municipal Airport (Oshawa, CA-ON)
cyooNearest METAR:
CYOO 251229Z AUTO 01003KT 5SM -SN -UP SCT015 OVC026 01/01 A2995 RMK SLP149
CYPQ UNICOM/Guard Peterborough Airport (Peterborough, CA-ON)
cypqNearest METAR:
CYPQ 251220Z AUTO 09002KT 1 1/2SM -SN OVC028 00/M01 A2995 RMK SLP150
CYYR Gander Center Goose Bay Airport/CFB Goose Bay (Goose Bay, CA-NL)
WX MAP UNAVAILABLENearest METAR:
CYYR 251200Z CCA 28003KT 12SM -SN OVC018 M12/M14 A2988 RMK SC8 VIS LWR W SLP124
CYYZ ATIS Lester B. Pearson International Airport (Toronto, CA-ON)
cyyzNearest METAR:
CYYZ 251207Z 06010KT 1 1/4SM -SN OVC011 00/M00 A2993 RMK SN6SF2 SLP143
CZBA CTAF Burlington Executive Airport (Burlington, CA-ON)
WX MAP UNAVAILABLENearest METAR:
METAR CZBA 251229Z AUTO 05007KT 340V130 3SM HZ OVC004 00/M01 A2992 RMK SLP136 ADVISORY ONLY=
EHGG Approach Groningen Airport Eelde (Groningen, Netherlands)
WX MAP UNAVAILABLENearest METAR:
EHGG 251225Z AUTO 26022G34KT 4400 -RA FEW019 BKN023 BKN026 05/02 Q0995 TEMPO 7000 -SHRA SCT020CB
EHRD Del/Twr Rotterdam The Hague Airport (Rotterdam, Netherlands)
WX MAP UNAVAILABLENearest METAR:
EHRD 251225Z AUTO 27013KT 220V310 9999 SCT020 BKN024 BKN028 08/04 Q0999 TEMPO 26022G33KT 7000 -SHRA FEW025CB
ENAT Twr/App/Control Alta Airport (Alta, Norway)
WX MAP UNAVAILABLENearest METAR:
ENAT 251150Z VRB02KT 6000 -SN VV016 M05/M07 Q0993 RMK WIND 700FT 06003KT
ENBO Approach Bodo Airport (Bodo, Norway)
WX MAP UNAVAILABLENearest METAR:
ENBO 251220Z 31008KT 9999 FEW020 SCT065 01/M07 Q0998 TEMPO 2000 SHSN VV010
ENCN Tower/Approach Kristiansand Airport - Kjevik (Kristiansand, Norway)
WX MAP UNAVAILABLENearest METAR:
ENCN 251220Z 02012KT 340V050 2800 -SN FEW005 BKN022 00/M00 Q0984
ENTC Tower/App Tromso Airport (Langnes, Norway)
WX MAP UNAVAILABLENearest METAR:
ENTC 251220Z 23007KT 9999 -SN VV013 M03/M05 Q0995 RESN TEMPO 1000 SHSN VV008 RMK WIND 2600FT /////KT
EVLA AFIS Liepaja International Airport (Liepaja, Latvia)
WX MAP UNAVAILABLENearest METAR:
EVLA 251220Z AUTO 13007KT 6000 -RA OVC008/// 02/02 Q0991
EYPA Tower Palanga International Airport (Palanga, Lithuania)
WX MAP UNAVAILABLENearest METAR:
EYPA 251220Z 16013KT 5000 -RA OVC005 02/02 Q0991 R19/2///95
EYVI Twr/App/Misc Vilnius International Airport (Vilnius, Lithuania)
WX MAP UNAVAILABLENearest METAR:
EYVI 251220Z 15010KT 3700 SNRA OVC004 01/00 Q0996 R19/2///95 TEMPO 3000 SNRA BR
FMMI Twr/App/Center Ivato International Airport (Antananarivo, Madagascar)
WX MAP UNAVAILABLENearest METAR:
FMMI 251200Z 15009KT 100V200 9999 VCSH SCT020CB 28/18 Q1013 TEMPO 3000 TSRA
KACK Tower Nantucket Memorial Airport (Nantucket, US-MA)
kackNearest METAR:
KACK 251153Z 18005KT 3SM -RA BR OVC002 06/06 A2993 RMK AO2 SLP136 P0004 60005 70005 T00610056 10072 20061 58007
KAHN Tower Athens/Ben Epps Airport (Athens, US-GA)
kahnNearest METAR:
KAHN 251151Z AUTO 00000KT 3SM BR OVC005 09/08 A2982 RMK AO2 CIG 003V008 SLP099 P0001 60007 70151 T00940078 10100 20094 53005
KASE Approach/Denver Center Aspen-Pitkin County Airport/Sardy Field (Aspen, US-CO)
kaseNearest METAR:
KASE 251228Z 31003KT 2 1/2SM -SN BR OVC016 M12/M13 A3011 RMK AO2 P0000 T11171133
KATL Approach (Final) Hartsfield - Jackson Atlanta International Airport (Atlanta, US-GA)
katlNearest METAR:
KATL 251152Z 05004KT 1/2SM R09R/2400V3500FT FG VV002 11/09 A2981 RMK AO2 SLP096 60001 70111 T01060094 10106 20094 53012
KAVL Gnd/Twr/App Asheville Regional Airport (Asheville, US-NC)
kavlNearest METAR:
KAVL 251154Z 00000KT 10SM OVC009 07/06 A2980 RMK AO2 SLP089 60006 70042 T00720056 10072 20067 51004
KBMG Twr/App Monroe County Airport (Bloomington, US-IN)
kbmgNearest METAR:
KBMG 251213Z 04009KT 2 1/2SM BR OVC002 06/04 A2967 RMK AO2 T00610044
KBMI Gnd/Twr/App/Dep Central Illinois Regional Airport at Bloomington-Normal (Bloomington/Normal, US-IL)
kbmiNearest METAR:
KBMI 251156Z 02014KT 4SM -RA BR OVC004 02/02 A2979 RMK AO2 SLP091 P0001 60001 7//// T00170017 10022 20017 51011
KBTR/KHZR/L38 Del/Gnd/Twr/App/CTAF Baton Rouge Metropolitan Airport - Ryan Field (Baton Rouge, US-LA)
kbtrNearest METAR:
KBTR 251153Z 00000KT 1 1/2SM BR CLR 12/12 A2983 RMK AO2 SLP101 70026 T01220117 10167 20122 53007
KBTR/KHZR/L38 Del/Gnd/Twr/App/CTAF Baton Rouge Metropolitan Airport - Ryan Field (Baton Rouge, US-LA)
khzrNearest METAR:
KHZR 251216Z AUTO 00000KT 1/2SM FG OVC002 11/11 A2985 RMK AO2
KCAE Gnd/Twr/App Columbia Metropolitan Airport (Columbia, US-SC)
kcaeNearest METAR:
KCAE 251156Z 20005KT 10SM OVC007 14/13 A2982 RMK AO2 SLP096 60013 70052 T01440128 10144 20094 50006
KCCO CTAF Newnan Coweta County Airport (Atlanta, US-GA)
kccoNearest METAR:
KCCO 251215Z AUTO 00000KT 7SM OVC003 16/16 A2981 RMK AO2 T01620156
KCTJ/KLGC CTAF West Georgia Regional Airport-O V Gray Field (Carrollton, US-GA)
kctjNearest METAR:
KCTJ 251215Z AUTO 00000KT M1/4SM FG OVC003 10/10 A2984 RMK AO2 T00990099
KCHA Twr/App Lovell Field Airport (Chattanooga, US-TN)
kchaNearest METAR:
KCHA 251153Z 18003KT 1 1/2SM BR OVC003 11/11 A2978 RMK AO2 SLP082 60002 70096 T01060106 10111 20100 53011
KCKB App/Dep North Central West Virginia Airport (Clarksburg, US-WV)
kckbNearest METAR:
KCKB 251225Z 00000KT 1 1/2SM BR SCT013 OVC025 07/05 A2973 RMK AO2 RAE24 P0000 T00720050
KCLE App/Dep Cleveland-Hopkins International Airport (Cleveland, US-OH)
kcleNearest METAR:
KCLE 251151Z 03008KT 1SM BR OVC002 03/02 A2981 RMK AO2 SFC VIS 2 SLP099 60000 70023 T00280017 10056 20028 58002
KCMI Del/Gnd/Twr/App University of Illinois-Willard Airport (Champaign/Urbana, US-IL)
kcmiNearest METAR:
KCMI 251208Z 04014G26KT 2 1/2SM BR OVC004 03/03 A2975 RMK AO2 PK WND 04026/1200 T00330028
KCOU CTAF/Gnd/App Columbia Regional Airport (Columbia, US-MO)
kcouNearest METAR:
KCOU 251217Z AUTO 35013KT 2SM -SN BR OVC006 01/00 A2985 RMK AO2 CIG 004V010 P0001 T00060000
KCUB CTAF Jim Hamilton L B Owens Airport (Columbia, US-SC)
kcubNearest METAR:
KCUB 251153Z AUTO 00000KT 10SM OVC009 14/13 A2984 RMK AO2 SLP103 60013 70051 T01390128 10139 20100 50022
KCVG Approach (Class B) Cincinnati/Northern Kentucky International Airport (Covington, US-KY)
kcvgNearest METAR:
KCVG 251152Z 06008KT 3/4SM R18C/P6000FT -DZ BR OVC003 07/06 A2966 RMK AO2 SFC VIS 3 RAE03DZB05 SLP044 P0000 60015 70062 T00670056 10067 20061 55000
KCYS Gnd/Twr/App/Center Cheyenne Regional Airport/Jerry Olson Field (Cheyenne, US-WY)
kcysNearest METAR:
KCYS 251217Z AUTO 35024G36KT 1SM -SN FEW013 OVC019 M09/M12 A3007 RMK AO2 PK WND 34038/1200 P0000 T10891117 RVRNO $
KDAY Del/Gnd/Twr/App James M Cox Dayton International Airport (Dayton, US-OH)
kdayNearest METAR:
KDAY 251156Z 06010KT 1SM R06L/P6000FT -RA BR OVC003 05/04 A2971 RMK AO2 SFC VIS 2 RAB24 SLP065 P0000 60000 70031 T00500039 10056 20050 58001 $
KDCA Tower/Approach Ronald Reagan Washington National Airport (Washington, US-DC)
kdcaNearest METAR:
KDCA 251225Z 19005KT 4SM -RA BR OVC008 08/08 A2987 RMK AO2 P0004 T00830078
KDTW Approach Detroit Metropolitan Wayne County Airport (Detroit, US-MI)
kdtwNearest METAR:
KDTW 251153Z 04010KT 3SM -RA BR OVC006 02/00 A2986 RMK AO2 SFC VIS 4 SLP117 P0000 60001 70016 T00170000 10017 20017 53002 $
KFNL CTAF Fort Collins-Loveland Municipal Airport (Fort Collins/Loveland, US-CO)
kfnlNearest METAR:
KFNL 251156Z AUTO 34025G32KT 10SM CLR M03/M11 A3011 RMK AO2 PK WND 35032/1156 SLP216 T10331111 11011 21033 53020 FZRANO
KFTY Ground/Tower Fulton County Airport-Brown Field (Atlanta, US-GA)
kftyNearest METAR:
KFTY 251224Z 05003KT 1/2SM FG VV002 09/09 A2982 RMK AO2 T00940089
KGAI CTAF/UNICOM Montgomery County Airpark (Gaithersburg, US-MD)
kgaiNearest METAR:
KGAI 251156Z AUTO 12004KT 4SM -RA BR OVC005 07/06 A2985 RMK AO2 SLP121 P0005 60007 70007 T00720061 10083 20067 50001
KGSP App/Dep (East) Greenville Spartanburg International Airport (Greer, US-SC)
kgspNearest METAR:
KGSP 251153Z 00000KT 1 1/4SM -RA BR BKN004 OVC012 08/07 A2983 RMK AO2 RAE03B50 SLP098 P0001 60012 70087 T00780067 10078 20078 53001 $
KGUS Del/Gnd/Twr/App Grissom Air Reserve Base (Peru, US-IN)
kgusNearest METAR:
KGUS 251220Z 04015KT 1 1/2SM -DZ BR OVC004 03/03 A2975 RMK AO2A SLP083 $
KGVL AWOS Lee Gilmer Memorial Airport (Gainesville, US-GA)
kgvlNearest METAR:
KGVL 251227Z AUTO 11004KT 1 3/4SM BR OVC003 08/08 A2984 RMK AO2 T00780078
KHDC De/Gnd/Twr/App/ZHU Hammond Northshore Regional Airport (Hammond, US-LA)
khdcNearest METAR:
KHDC 251215Z AUTO 00000KT 1/4SM FG OVC002 12/12 A2984 RMK AO2
KHEF Del/Gnd/Twr Manassas Regional Airport/Harry P. Davis Field (Manassas, US-VA)
khefNearest METAR:
KHEF 251219Z 14003KT 2 1/2SM -RA BR SCT006 OVC010 07/07 A2985 RMK AO2 P0003
KHRL Tower/CTAF Valley International Airport (Harlingen, US-TX)
khrlNearest METAR:
KHRL 251223Z AUTO 00000KT 1 1/4SM BR OVC003 19/19 A2983 RMK AO2 T01890189 TSNO
KHRO CTAF/ZME/Misc Boone County Airport (Harrison, US-AR)
khroNearest METAR:
KHRO 251153Z AUTO 31005KT 10SM OVC006 04/03 A2983 RMK AO2 CIG 005V010 SLP102 70001 T00440028 10056 20044 53017 $
KHUF Gnd/Twr/App Terre Haute International Airport-Hulman Field (Terre Haute, US-IN)
khufNearest METAR:
KHUF 251153Z 04009KT 6SM -RA BR OVC006 06/05 A2969 RMK AO2 SLP055 P0004 60005 70037 T00560050 10067 20056 53003
KHYS CTAF Hays Regional Airport (Hays, US-KS)
khysNearest METAR:
KHYS 251229Z AUTO 33016KT 9SM BKN005 OVC009 00/M01 A2990 RMK AO2 FZRANO
KIAD Del/Gnd Washington Dulles International Airport (Washington, US-DC)
kiadNearest METAR:
KIAD 251152Z 16003KT 4SM -RA BR OVC006 08/07 A2985 RMK AO2 SLP106 P0005 60012 70012 T00780067 10083 20072 56004
KIND Ground Indianapolis International Airport (Indianapolis, US-IN)
kindNearest METAR:
KIND 251154Z 04010KT 5SM -DZ BR OVC003 04/04 A2970 RMK AO2 RAE04DZB40 SLP060 P0000 60003 70045 T00440039 10056 20044 53004
KJCA CTAF Jackson County Airport (Jefferson, US-GA)
kjcaNearest METAR:
KJCA 251215Z AUTO 06003KT 1 1/2SM BR OVC003 08/08 A2984 RMK AO2 T00820081
KLAF Tower Purdue University Airport (Lafayette, US-IN)
klafNearest METAR:
KLAF 251154Z 05009G20KT 8SM OVC006 04/04 A2974 RMK AO2 SLP074 70019 T00390039 10044 20039 53004
KLAN Del/Gnd/Twr/App Capital Region International Airport (Lansing, US-MI)
klanNearest METAR:
KLAN 251224Z 02009KT 10SM OVC009 00/M02 A2991 RMK AO2 T00001017
KLFI Del/Gnd/Twr Langley Air Force Base (Hampton, US-VA)
klfiNearest METAR:
KLFI 251226Z 17005KT 3SM +DZ BR OVC004 10/10 A2986 RMK AO2A DZE04RAB04E16DZB16 CIG 002 RWY08 SLP118 $
KLOU Tower Bowman Field Airport (Louisville, US-KY)
klouNearest METAR:
KLOU 251153Z 00000KT 3SM BR OVC005 10/09 A2964 RMK AO2 RAE1057 SLP037 P0000 60017 70082 T01000089 10100 20094 53007
KMFD ATIS Mansfield Lahm Regional Airport (Mansfield, US-OH)
kmfdNearest METAR:
KMFD 251214Z 03006KT 5SM BR OVC009 04/03 A2975 RMK AO2 CIG 006V011 T00390033
KMFE Gnd/Twr Mc Allen Miller International Airport (Mc Allen, US-TX)
kmfeNearest METAR:
KMFE 251155Z 00000KT 6SM BR OVC004 19/18 A2983 RMK AO2 T01940178
KMGY Air to Air Dayton-Wright Brothers Airport (Dayton, US-OH)
kmgyNearest METAR:
KMGY 251153Z AUTO 06010KT 6SM BR OVC003 06/04 A2968 RMK AO2 SLP054 60010 70057 T00560044 10056 20056 58003
KMQJ CTAF Indianapolis Regional Airport (Indianapolis, US-IN)
kmqjNearest METAR:
KMQJ 250255Z AUTO 08005KT 1 1/2SM OVC004 05/05 A2974 RMK AO1
KMTC App/Dep Selfridge Air National Guard Base (Mount Clemens, US-MI)
kmtcNearest METAR:
KMTC 251216Z 01008KT 10SM OVC008 02/02 A2987 RMK AO2A SLP125
KMTC Area CTAF Ray Community Airport (Ray, US-MI)
kphnNearest METAR:
KPHN 251215Z AUTO 02006KT 5SM UP OVC003 01/00 A2990 RMK AO2
KMTN Ground/Misc Martin State Airport (Baltimore, US-MD)
kmtnNearest METAR:
KMTN 251155Z 12004KT 2SM -DZBR OVC003 07/07 A2989
KMVY Del/Gnd/Twr Martha's Vineyard Airport (Vineyard Haven, US-MA)
kmvyNearest METAR:
KMVY 251153Z 20004KT 4SM -RA BR OVC003 06/06 A2992 RMK AO2 SLP132 P0004 60007 70007 T00610056 10072 20061 58006
KMWA Gnd/Twr/CTAF Williamson County Regional Airport (Marion, US-IL)
kmwaNearest METAR:
KMWA 251215Z AUTO 31004KT 1 3/4SM BR OVC003 07/07 A2973 RMK AO2 T00660066
KMYR Gnd/Twr/App Myrtle Beach International Airport (Myrtle Beach, US-SC)
kmyrNearest METAR:
KMYR 251227Z 17011KT 2SM BR OVC001 14/14 A2985 RMK AO2 RAE14 P0000
KNGU Del/Gnd/Twr Norfolk Naval Station (Chambers Field) (Norfolk, US-VA)
knguNearest METAR:
KNGU 251159Z 17004KT 4SM -RA BR OVC004 12/11 A2989 RMK AO2 SLP120 P0003 60007 70014 T01170106 10117 20094 58007
KNTU Gnd/Twr/App/Radar Oceana Naval Air Station (Apollo Soucek Field) (Virginia Beach, US-VA)
kntuNearest METAR:
KNTU 251208Z 19003KT 1 1/2SM -RA BR OVC003 11/11 A2988 RMK AO2 P0000 T01060106
KORF Gnd/Twr/App/Radar Norfolk International Airport (Norfolk, US-VA)
korfNearest METAR:
KORF 251151Z 17005KT 6SM -RA BR OVC003 12/11 A2987 RMK AO2 SLP113 P0003 60005 70011 T01170106 10117 20094 58009
KOSU Ground/Tower Ohio State University Airport (Columbus, US-OH)
kosuNearest METAR:
KOSU 251153Z 04007KT 5SM BR OVC005 05/03 A2973 RMK AO2 SLP071 60001 70018 T00500033 10050 20044 56001
KPCW CTAF/App Erie-Ottawa International Airport (Port Clinton, US-OH)
kpcwNearest METAR:
KPCW 251215Z AUTO 05013G18KT 3SM BR OVC004 02/01 A2982 RMK AO2
KPDK Tower #2 Dekalb-Peachtree Airport (Atlanta, US-GA)
kpdkNearest METAR:
KPDK 251220Z 00000KT 1/4SM FG VV002 08/08 A2982 RMK AO2 T00830083
KPEO CTAF Penn Yan Airport (Penn Yan, US-NY)
kpeoNearest METAR:
KPEO 251222Z AUTO 00000KT 2 1/2SM -RA BR OVC065 02/01 A2988 RMK AO2 RAB09 P0000 T00220006
KPHF Ground/Tower Newport News/Williamsburg International Airport (Newport News, US-VA)
kphfNearest METAR:
KPHF 251201Z 18004KT 5SM -RA BR OVC003 11/09 A2987 RMK AO2 P0000 T01060089
KPKB Gnd/Twr/Unicom Mid-Ohio Valley Regional Airport (Parkersburg, US-WV)
kpkbNearest METAR:
KPKB 251153Z 00000KT 1/4SM -RA FG VV004 06/06 A2973 RMK AO2 RAE30B44 SLP068 P0003 60008 70023 T00610056 10067 20061 58000
KPXE CTAF Perry-Houston County Airport (Perry, US-GA)
kpxeNearest METAR:
KPXE 251215Z AUTO 19009KT 10SM OVC005 16/16 A2982 RMK AO2 T01590157
KRDU Approach (Final) Raleigh-Durham International Airport (Raleigh/Durham, US-NC)
krduNearest METAR:
KRDU 251151Z 16003KT 1SM BR OVC003 12/11 A2983 RMK AO2 SFC VIS 2 SLP101 60015 70034 T01170111 10117 20094 56001
KRIC Del/Gnd/Twr/App Richmond International Airport (Richmond, US-VA)
kricNearest METAR:
KRIC 251210Z 13009G17KT 4SM -RA BR OVC003 09/09 A2983 RMK AO2 P0001 T00890089
KROA Gnd/Twr/App Roanoke Regional Airport/Woodrum Field (Roanoke, US-VA)
kroaNearest METAR:
KROA 251154Z 00000KT 10SM OVC006 07/07 A2982 RMK AO2 SLP096 60024 70026 T00720067 10072 20067 58006
KROG/KXNA/KVBT/Misc Rogers Executive Airport - Carter Field (Rogers, US-AR)
krogNearest METAR:
KROG 251158Z 31005KT 7SM OVC006 04/03 A2986 RMK AO2 RAB20E34 SLP115 6//// 7//// T00390028 10050 20039 53017 PNO $
KRYY ATIS Cobb County International Airport-McCollum Field (Atlanta, US-GA)
kryyNearest METAR:
KRYY 251204Z 00000KT 1/4SM -RA FG OVC001 08/08 A2982 RMK AO2 PNO $
Atlanta Approach (N. Sat) Hartsfield - Jackson Atlanta International Airport (Atlanta, US-GA)
kmgeNearest METAR:
KMGE 251156Z 07003KT 1/4SM R29/4500V5000FT FG VV001 09/09 A2981 RMK AO2A SLP097 60008 70081 T00880088 10091 20088 53012 $
KSAR CTAF Sparta Community Airport-Hunter Field (Sparta, US-IL)
ksarNearest METAR:
KSAR 251215Z AUTO 32008KT 2 1/2SM BR OVC003 05/05 A2977 RMK AO2 T00470046
KSDF App/Dep #1 Louisville International Airport-Standiford Field (Louisville, US-KY)
ksdfNearest METAR:
KSDF 251156Z 00000KT 5SM -RA BR OVC005 10/08 A2964 RMK AO2 SLP037 P0000 60017 70075 T01000083 10100 20094 53006
KSTL Del/Gnd/Twr Lambert-St Louis International Airport (St. Louis, US-MO)
kstlNearest METAR:
KSTL 251151Z 33008KT 5SM RA BR OVC008 04/02 A2979 RMK AO2 SLP091 P0006 60013 7//// T00390022 10061 20039 53019
KSUS App/Dep Spirit of St. Louis Airport (St. Louis, US-MO)
ksusNearest METAR:
KSUS 251154Z 33009KT 4SM BR OVC009 04/03 A2980 RMK AO2 RAE37 CIG 007V013 SLP095 P0001 60004 70075 T00390028 10061 20039 53021
KTLH Del/Gnd/Twr/App Tallahassee Regional Airport (Tallahassee, US-FL)
ktlhNearest METAR:
KTLH 251153Z 11005KT 10SM OVC004 18/17 A2986 RMK AO2 SLP109 60128 70218 T01780172 10183 20172 53000 $
KTOL Del/Gnd/Twr/App Toledo Express Airport (Toledo, US-OH)
ktolNearest METAR:
KTOL 251152Z 05011KT 2SM BR OVC005 03/01 A2982 RMK AO2 SLP103 60000 70027 T00280011 10044 20028 51004 $
KTTA CTAF Raleigh Executive Jetport at Sanford-Lee County Airport (Sanford, US-NC)
kttaNearest METAR:
KTTA 251235Z AUTO 00000KT 1/2SM FG BKN002 OVC007 10/10 A2984 RMK AO2 T01040104
MMSP Gnd/Twr/App/Center Ponciano Arriaga International Airport (San Luis Potosi, Mexico)
WX MAP UNAVAILABLENearest METAR:
MMSP 251144Z 00000KT 1/4SM FG HZ FEW230 09/08 A3007 RMK SLP047 57008 975 8/001 ST
PADQ Gnd/Twr/ZAN Kodiak Airport (Kodiak, US-AK)
padqNearest METAR:
PADQ 251153Z AUTO 02035G48KT 3/4SM HZ VV014 01/M02 A2951 RMK AO2 PK WND 03052/1124 SNEMM SLP994 P0005 60007 70007 I1000 I6000 T00061022 10022 20000 56025 PWINO FZRANO TSNO $
Matsu CTAF Palmer Municipal Airport (Palmer, US-AK)
pawsNearest METAR:
PAWS 251156Z AUTO 05019G36KT 8SM -SN CLR M08/M21 A2993 RMK AO2 PK WND 04036/1148 SLP145 P0000 60000 T10781206 11078 21083 58052 FZRANO
SBFI Twr/App/Ctr/Misc Foz do Iguacu International Airport (Foz do Iguacu, Brazil)
WX MAP UNAVAILABLENearest METAR:
SBFI 251200Z 36004KT 3500 TSRA BKN007 FEW023CB OVC070 23/22 Q1012
URSS Gnd/Twr/App Sochi International Airport (Sochi, Russia)
WX MAP UNAVAILABLENearest METAR:
URSS 251200Z 05002MPS 020V110 9999 BKN032CB BKN100 06/02 Q1019 WS ALL RWY R02/290060 R06/290061 TEMPO -TSRA BKN020CB RMK R06/08002MPS MT OBSC QFE763
WMSA Del/Gnd/Twr/App Sultan Abdul Aziz Shah Airport (Subang, Malaysia)
WX MAP UNAVAILABLENearest METAR:
WMSA 251200Z VRB02KT 9999 -RA SCT024 28/26 Q1009 RETSRA